createdAt,value
2022-11-04T01:33:55.945Z,99.20
2022-11-04T01:36:23.447Z,99.20
2022-11-04T01:38:50.875Z,99.00
2022-11-04T01:41:24.428Z,99.00
2022-11-04T01:43:58.140Z,98.90
2022-11-04T01:46:43.085Z,99.00
2022-11-04T01:49:23.291Z,98.90
2022-11-04T01:51:54.288Z,98.90
2022-11-04T01:54:21.897Z,98.90
2022-11-04T01:56:50.166Z,98.80
2022-11-04T01:59:26.602Z,98.60
2022-11-04T02:01:54.477Z,98.60
2022-11-04T02:04:28.088Z,98.50
2022-11-04T02:07:01.823Z,98.50
2022-11-04T02:09:31.780Z,98.40
2022-11-04T02:12:18.452Z,98.60
2022-11-04T02:14:48.071Z,98.50
2022-11-04T02:17:18.484Z,98.30
2022-11-04T02:20:14.085Z,98.30
2022-11-04T02:23:10.845Z,98.10
2022-11-04T02:26:09.747Z,98.00
2022-11-04T02:29:04.198Z,98.00
2022-11-04T02:31:56.865Z,97.90
2022-11-04T02:34:27.221Z,97.90
2022-11-04T02:37:16.572Z,97.90
2022-11-04T02:40:03.756Z,97.90
2022-11-04T02:43:02.508Z,97.80
2022-11-04T02:45:44.721Z,97.70
2022-11-04T02:48:46.829Z,97.60
2022-11-04T02:51:32.917Z,97.60
2022-11-04T02:54:20.174Z,97.70
2022-11-04T02:56:51.015Z,97.70
2022-11-04T02:59:37.198Z,97.70
2022-11-04T03:02:09.024Z,97.90
2022-11-04T03:04:44.558Z,98.00
2022-11-04T03:07:15.204Z,97.90
2022-11-04T03:09:50.205Z,97.90
2022-11-04T03:12:21.729Z,98.00
2022-11-04T03:14:53.575Z,98.00
2022-11-04T03:17:36.422Z,97.80
2022-11-04T03:20:09.219Z,97.80
2022-11-04T03:22:37.729Z,97.60
2022-11-04T03:25:08.380Z,97.50
2022-11-04T03:27:45.277Z,97.30
2022-11-04T03:32:54.074Z,97.00
2022-11-04T03:42:00.032Z,96.70
2022-11-04T03:44:28.416Z,96.80
2022-11-04T03:46:55.774Z,96.50
2022-11-04T03:49:24.738Z,96.30
2022-11-04T03:51:52.946Z,96.60
2022-11-04T03:54:20.888Z,96.20
2022-11-04T03:57:13.493Z,96.20
2022-11-04T04:00:12.802Z,96.20
2022-11-04T04:03:20.597Z,96.10
2022-11-04T04:06:02.940Z,96.10
2022-11-04T04:08:49.890Z,96.00
2022-11-04T04:11:41.125Z,96.00
2022-11-04T04:14:44.920Z,95.90
2022-11-04T04:17:47.949Z,96.00
2022-11-04T04:20:23.099Z,95.90
2022-11-04T04:22:58.677Z,96.20
2022-11-04T04:25:47.725Z,96.20
2022-11-04T04:28:17.452Z,96.20
2022-11-04T04:30:46.443Z,96.10
2022-11-04T04:33:16.047Z,96.20
2022-11-04T04:35:52.771Z,96.10
2022-11-04T04:38:46.751Z,96.20
2022-11-04T04:41:39.164Z,96.20
2022-11-04T04:44:43.301Z,96.30
2022-11-04T04:47:22.637Z,96.30
2022-11-04T04:49:55.348Z,96.20
2022-11-04T04:52:26.572Z,96.10
2022-11-04T04:54:54.283Z,96.30
2022-11-04T04:57:26.451Z,96.20
2022-11-04T05:02:39.983Z,96.20
2022-11-04T05:05:08.269Z,96.30
2022-11-04T05:07:36.444Z,96.20
2022-11-04T05:10:04.414Z,96.20
2022-11-04T05:12:52.036Z,96.20
2022-11-04T05:15:20.274Z,96.30
2022-11-04T05:27:36.699Z,96.30
2022-11-04T05:30:04.414Z,96.30
2022-11-04T05:38:39.602Z,96.50
2022-11-04T05:41:10.535Z,96.40
2022-11-04T05:43:38.125Z,96.50
2022-11-04T05:49:15.580Z,96.50
2022-11-04T05:51:43.273Z,96.60
2022-11-04T05:54:10.708Z,96.60
2022-11-04T05:56:38.118Z,96.60
2022-11-04T05:59:05.578Z,96.60
2022-11-04T06:01:36.165Z,96.60
2022-11-04T06:04:05.285Z,96.70
2022-11-04T06:06:35.342Z,96.70
2022-11-04T06:09:03.737Z,96.50
2022-11-04T06:11:33.116Z,96.60
2022-11-04T06:14:00.777Z,96.80
2022-11-04T06:16:28.294Z,96.70
2022-11-04T06:18:57.612Z,96.70
2022-11-04T06:21:32.047Z,96.70
2022-11-04T06:23:59.944Z,96.80
2022-11-04T06:26:30.893Z,97.00
2022-11-04T06:28:58.340Z,97.00
2022-11-04T06:31:25.861Z,96.90
2022-11-04T06:33:53.272Z,97.00
2022-11-04T06:36:20.738Z,97.10
2022-11-04T06:38:48.057Z,97.00
2022-11-04T06:41:17.215Z,97.10
2022-11-04T06:43:44.923Z,97.10
2022-11-04T06:46:39.640Z,97.10
2022-11-04T06:49:15.385Z,97.10
2022-11-04T06:51:42.723Z,97.20
2022-11-04T06:54:10.396Z,97.20
2022-11-04T06:56:37.944Z,97.30
2022-11-04T06:59:06.139Z,97.20
2022-11-04T07:01:36.582Z,97.30
2022-11-04T07:04:07.470Z,97.20
2022-11-04T07:06:37.263Z,97.30
2022-11-04T07:09:07.277Z,97.30
2022-11-04T07:11:34.673Z,97.30
2022-11-04T07:14:02.812Z,97.20
2022-11-04T07:16:30.084Z,97.20
2022-11-04T07:18:57.774Z,97.20
2022-11-04T07:21:25.207Z,97.30
2022-11-04T07:23:52.604Z,97.30
2022-11-04T07:26:20.303Z,97.30
2022-11-04T07:28:47.785Z,97.10
2022-11-04T07:31:15.748Z,97.00
2022-11-04T07:33:43.212Z,97.00
2022-11-04T07:36:12.735Z,96.80
2022-11-04T07:38:40.017Z,96.80
2022-11-04T07:41:08.255Z,96.70
2022-11-04T07:43:35.526Z,97.00
2022-11-04T07:46:14.645Z,96.70
2022-11-04T07:48:41.979Z,96.80
2022-11-04T07:51:12.996Z,96.60
2022-11-04T07:53:40.321Z,96.70
2022-11-04T07:56:11.526Z,96.60
2022-11-04T07:58:39.703Z,96.60
2022-11-04T08:01:11.281Z,96.70
2022-11-04T08:03:39.059Z,96.70
2022-11-04T08:06:07.799Z,96.80
2022-11-04T08:08:35.469Z,96.40
2022-11-04T08:11:14.262Z,96.50
2022-11-04T08:13:45.111Z,96.70
2022-11-04T08:16:15.682Z,96.50
2022-11-04T08:18:43.421Z,96.40
2022-11-04T08:21:11.513Z,96.40
2022-11-04T08:23:39.344Z,96.60
2022-11-04T08:26:16.954Z,96.50
2022-11-04T08:28:44.881Z,96.50
2022-11-04T08:31:21.740Z,96.40
2022-11-04T08:33:49.151Z,96.40
2022-11-04T08:36:26.936Z,96.30
2022-11-04T08:38:54.766Z,96.30
2022-11-04T08:41:25.552Z,96.30
2022-11-04T08:43:53.370Z,96.40
2022-11-04T08:46:20.794Z,96.20
2022-11-04T08:48:49.476Z,96.10
2022-11-04T08:51:23.508Z,96.30
2022-11-04T08:53:51.242Z,96.20
2022-11-04T08:56:31.096Z,96.10
2022-11-04T08:58:59.962Z,96.20
2022-11-04T09:01:34.419Z,96.30
2022-11-04T09:04:03.970Z,96.20
2022-11-04T09:06:34.912Z,96.20
2022-11-04T09:09:04.685Z,96.10
2022-11-04T09:11:34.415Z,96.10
2022-11-04T09:14:03.614Z,96.10
2022-11-04T09:16:33.051Z,96.10
2022-11-04T09:19:01.014Z,96.10
2022-11-04T09:21:28.776Z,95.80
2022-11-04T09:23:56.896Z,95.50
2022-11-04T09:26:26.121Z,95.80
2022-11-04T09:28:55.954Z,95.60
2022-11-04T09:31:24.179Z,95.60
2022-11-04T09:33:51.759Z,95.40
2022-11-04T09:36:19.070Z,95.30
2022-11-04T09:38:46.583Z,95.70
2022-11-04T09:41:37.473Z,95.90
2022-11-04T09:44:15.390Z,96.00
2022-11-04T09:46:44.477Z,95.90
2022-11-04T09:49:13.364Z,95.80
2022-11-04T09:51:56.955Z,95.70
2022-11-04T09:54:46.822Z,95.70
2022-11-04T09:57:19.204Z,96.00
2022-11-04T09:59:48.211Z,95.40
2022-11-04T10:02:33.838Z,95.60
2022-11-04T10:05:15.515Z,95.70
2022-11-04T10:07:57.885Z,95.70
2022-11-04T10:11:06.464Z,95.80
2022-11-04T10:14:09.292Z,95.70
2022-11-04T10:17:01.285Z,95.60
2022-11-04T10:19:48.485Z,94.50
2022-11-04T10:22:38.874Z,94.30
2022-11-04T10:25:15.512Z,94.30
2022-11-04T10:27:46.066Z,94.10
2022-11-04T10:30:21.142Z,95.00
2022-11-04T10:33:12.925Z,95.00
2022-11-04T10:35:45.689Z,94.90
2022-11-04T10:38:44.164Z,94.00
2022-11-04T10:41:33.071Z,94.20
2022-11-04T10:44:20.622Z,94.50
2022-11-04T10:47:14.352Z,94.50
2022-11-04T10:50:33.450Z,94.70
2022-11-04T10:53:22.874Z,94.70
2022-11-04T10:56:02.374Z,93.90
2022-11-04T10:58:32.546Z,93.50
2022-11-04T11:01:00.462Z,93.50
2022-11-04T11:03:31.350Z,93.30
2022-11-04T11:06:28.031Z,93.10
2022-11-04T11:09:00.010Z,93.10
2022-11-04T11:11:47.388Z,93.20
2022-11-04T11:14:35.052Z,93.50
2022-11-04T11:17:14.828Z,93.30
2022-11-04T11:19:53.244Z,93.20
2022-11-04T11:22:41.316Z,92.60
2022-11-04T11:25:20.706Z,92.90
2022-11-04T11:27:56.355Z,92.90
2022-11-04T11:30:33.648Z,92.80
2022-11-04T11:33:27.866Z,92.50
2022-11-04T11:36:17.094Z,92.10
2022-11-04T11:38:52.877Z,92.10
2022-11-04T11:41:25.598Z,92.00
2022-11-04T11:43:55.860Z,91.60
2022-11-04T11:46:25.313Z,91.50
2022-11-04T11:49:01.456Z,91.50
2022-11-04T11:51:38.192Z,91.80
2022-11-04T11:54:33.556Z,91.50
2022-11-04T11:57:25.670Z,91.70
2022-11-04T12:03:18.057Z,91.10
2022-11-04T12:12:00.536Z,91.10
2022-11-04T12:14:49.703Z,91.00
2022-11-04T12:17:43.496Z,91.10
2022-11-04T12:20:29.912Z,91.00
2022-11-04T12:23:25.347Z,90.50
2022-11-04T12:26:01.001Z,90.90
2022-11-04T12:28:48.181Z,90.10
2022-11-04T12:31:36.799Z,90.40
2022-11-04T12:34:23.762Z,90.90
2022-11-04T12:37:33.171Z,90.70
2022-11-04T12:40:18.592Z,91.20
2022-11-04T12:43:16.572Z,90.80
2022-11-04T12:46:08.674Z,90.60
2022-11-04T12:48:44.725Z,90.00
2022-11-04T12:51:37.412Z,89.00
2022-11-04T12:54:14.642Z,90.40
2022-11-04T12:56:41.920Z,90.10
2022-11-04T12:59:46.802Z,89.90
2022-11-04T13:02:25.873Z,90.40
2022-11-04T13:05:22.446Z,90.20
2022-11-04T13:08:14.313Z,90.10
2022-11-04T13:10:53.107Z,90.10
2022-11-04T13:13:29.769Z,90.40
2022-11-04T13:16:04.579Z,90.30
2022-11-04T13:18:37.477Z,90.30
2022-11-04T13:21:10.230Z,89.20
2022-11-04T13:23:45.413Z,87.70
2022-11-04T13:26:17.328Z,88.00
2022-11-04T13:29:04.298Z,88.20
2022-11-04T13:32:01.635Z,88.50
2022-11-04T13:34:56.784Z,89.30
2022-11-04T13:38:12.693Z,88.20
2022-11-04T13:41:12.210Z,89.40
2022-11-04T13:43:50.269Z,89.20
2022-11-04T13:46:19.195Z,89.10
2022-11-04T13:49:14.744Z,89.20
2022-11-04T13:51:48.105Z,87.90
2022-11-04T13:54:32.959Z,88.20
2022-11-04T13:57:14.727Z,88.00
2022-11-04T13:59:44.279Z,86.10
2022-11-04T14:02:11.952Z,86.30
2022-11-04T14:04:44.415Z,87.40
2022-11-04T14:07:15.796Z,88.40
2022-11-04T14:09:43.164Z,88.70
2022-11-04T14:12:10.373Z,89.20
2022-11-04T14:14:38.892Z,88.80
2022-11-04T14:17:35.268Z,90.00
2022-11-04T14:20:06.434Z,90.10
2022-11-04T14:22:33.978Z,90.20
2022-11-04T14:25:26.396Z,90.40
2022-11-04T14:28:00.579Z,89.70
2022-11-04T14:30:45.088Z,89.20
2022-11-04T14:33:34.865Z,90.40
2022-11-04T14:36:25.483Z,89.80
2022-11-04T14:38:54.819Z,89.40
2022-11-04T14:41:27.964Z,89.20
2022-11-04T14:43:58.743Z,89.10
2022-11-04T14:46:31.485Z,89.40
2022-11-04T14:49:01.663Z,88.90
2022-11-04T14:51:40.647Z,89.00
2022-11-04T14:54:21.456Z,89.20
2022-11-04T14:56:49.319Z,89.50
2022-11-04T14:59:27.455Z,89.80
2022-11-04T15:01:55.774Z,90.10
2022-11-04T15:04:29.588Z,89.50
2022-11-04T15:06:59.069Z,90.00
2022-11-04T15:09:31.787Z,90.30
2022-11-04T15:12:36.785Z,90.70
2022-11-04T15:15:24.096Z,90.60
2022-11-04T15:17:51.697Z,90.30
2022-11-04T15:20:24.968Z,90.30
2022-11-04T15:22:55.900Z,90.10
2022-11-04T15:25:23.629Z,89.70
2022-11-04T15:27:51.088Z,90.30
2022-11-04T15:30:23.207Z,90.10
2022-11-04T15:33:01.332Z,90.40
2022-11-04T15:35:32.293Z,90.40
2022-11-04T15:38:01.663Z,90.40
2022-11-04T15:40:30.567Z,90.40
2022-11-04T15:43:02.302Z,90.40
2022-11-04T15:45:37.649Z,90.40
2022-11-04T15:48:26.816Z,90.60
2022-11-04T15:51:21.504Z,90.60
2022-11-04T15:53:58.237Z,90.50
2022-11-04T15:56:33.468Z,90.60
2022-11-04T15:59:01.677Z,90.50
2022-11-04T16:01:29.808Z,90.70
2022-11-04T16:04:00.169Z,90.60
2022-11-04T16:06:39.223Z,90.50
2022-11-04T16:09:10.919Z,90.80
2022-11-04T16:11:38.815Z,90.90
2022-11-04T16:14:23.507Z,91.10
2022-11-04T16:16:53.209Z,91.30
2022-11-04T16:19:24.445Z,91.30
2022-11-04T16:22:09.592Z,91.20
2022-11-04T16:24:39.987Z,91.30
2022-11-04T16:27:11.328Z,91.50
2022-11-04T16:29:43.845Z,91.40
2022-11-04T16:32:24.091Z,91.50
2022-11-04T16:34:54.448Z,91.70
2022-11-04T16:37:21.743Z,91.40
2022-11-04T16:39:50.112Z,91.70
2022-11-04T16:42:17.956Z,91.80
2022-11-04T16:44:50.064Z,91.90
2022-11-04T16:47:18.978Z,92.00
2022-11-04T16:49:46.382Z,92.10
2022-11-04T16:52:22.970Z,92.10
2022-11-04T16:54:50.788Z,92.10
2022-11-04T16:57:18.245Z,92.00
2022-11-04T16:59:45.593Z,91.90
2022-11-04T17:02:27.980Z,92.30
2022-11-04T17:04:55.757Z,92.40
2022-11-04T17:07:35.166Z,92.60
2022-11-04T17:10:16.942Z,92.80
2022-11-04T17:12:44.996Z,92.90
2022-11-04T17:15:13.680Z,92.90
2022-11-04T17:17:41.144Z,93.10
2022-11-04T17:20:12.935Z,93.10
2022-11-04T17:22:40.540Z,93.30
2022-11-04T17:25:19.735Z,93.40
2022-11-04T17:27:48.230Z,93.50
2022-11-04T17:30:16.962Z,93.60
2022-11-04T17:32:45.165Z,93.70
2022-11-04T17:35:12.679Z,93.60
2022-11-04T17:37:40.398Z,93.40
2022-11-04T17:40:08.770Z,93.50
2022-11-04T17:42:54.797Z,93.70
2022-11-04T17:45:22.068Z,93.80
2022-11-04T17:47:49.461Z,94.00
2022-11-04T17:50:16.955Z,94.00
2022-11-04T17:52:45.778Z,94.10
2022-11-04T17:55:17.272Z,93.90
2022-11-04T17:57:49.050Z,93.70
2022-11-04T18:00:16.757Z,93.60
2022-11-04T18:02:44.471Z,93.70
2022-11-04T18:05:12.096Z,93.70
2022-11-04T18:07:39.743Z,93.80
2022-11-04T18:10:08.067Z,93.80
2022-11-04T18:12:38.774Z,93.80
2022-11-04T18:15:10.027Z,93.80
2022-11-04T18:17:39.591Z,93.80
2022-11-04T18:20:13.750Z,93.80
2022-11-04T18:22:42.642Z,93.80
2022-11-04T18:25:11.176Z,94.00
2022-11-04T18:27:39.955Z,93.80
2022-11-04T18:30:07.892Z,93.90
2022-11-04T18:32:35.670Z,93.80
2022-11-04T18:35:03.120Z,93.70
2022-11-04T18:37:30.645Z,93.60
2022-11-04T18:40:01.570Z,93.50
2022-11-04T18:42:29.004Z,93.60
2022-11-04T18:44:56.278Z,93.80
2022-11-04T18:47:24.126Z,93.70
2022-11-04T18:49:52.486Z,94.10
2022-11-04T18:52:20.207Z,94.00
2022-11-04T18:54:48.043Z,93.80
2022-11-04T18:57:15.456Z,93.80
2022-11-04T18:59:42.893Z,93.90
2022-11-04T19:02:20.264Z,93.90
2022-11-04T19:04:47.743Z,94.10
2022-11-04T19:07:15.023Z,94.30
2022-11-04T19:09:47.110Z,94.30
2022-11-04T19:12:35.239Z,94.30
2022-11-04T19:15:04.380Z,94.40
2022-11-04T19:17:32.101Z,94.40
2022-11-04T19:19:59.420Z,94.50
2022-11-04T19:22:26.678Z,94.60
2022-11-04T19:24:54.055Z,94.60
2022-11-04T19:27:23.136Z,94.70
2022-11-04T19:29:51.006Z,94.80
2022-11-04T19:32:19.010Z,94.90
2022-11-04T19:34:46.738Z,94.90
2022-11-04T19:37:14.211Z,95.00
2022-11-04T19:39:42.103Z,94.90
2022-11-04T19:42:30.361Z,95.00
2022-11-04T19:44:58.173Z,95.00
2022-11-04T19:47:25.477Z,95.00
2022-11-04T19:49:53.868Z,95.10
2022-11-04T19:52:21.680Z,95.20
2022-11-04T19:54:48.989Z,95.30
2022-11-04T19:57:16.360Z,95.40
2022-11-04T19:59:43.695Z,95.40
2022-11-04T20:02:15.273Z,95.40
2022-11-04T20:04:43.163Z,95.30
2022-11-04T20:07:10.455Z,95.30
2022-11-04T20:09:37.824Z,95.30
2022-11-04T20:12:23.966Z,95.40
2022-11-04T20:14:55.412Z,95.40
2022-11-04T20:17:23.918Z,95.50
2022-11-04T20:19:51.490Z,95.60
2022-11-04T20:22:19.016Z,95.80
2022-11-04T20:24:48.759Z,95.80
2022-11-04T20:27:16.530Z,95.80
2022-11-04T20:29:44.087Z,95.60
2022-11-04T20:32:11.543Z,95.80
2022-11-04T20:34:43.932Z,95.80
2022-11-04T20:37:12.572Z,95.80
2022-11-04T20:39:39.903Z,95.80
2022-11-04T20:42:07.591Z,95.90
2022-11-04T20:44:34.920Z,96.00
2022-11-04T20:47:11.885Z,96.00
2022-11-04T20:49:39.471Z,95.80
2022-11-04T20:52:06.853Z,96.10
2022-11-04T20:54:34.333Z,96.20
2022-11-04T20:57:01.923Z,96.20
2022-11-04T20:59:29.353Z,96.30
2022-11-04T21:01:56.838Z,96.30
2022-11-04T21:04:24.656Z,96.30
2022-11-04T21:06:53.446Z,96.30
2022-11-04T21:09:21.789Z,96.30
2022-11-04T21:11:50.160Z,96.30
2022-11-04T21:14:19.467Z,96.40
2022-11-04T21:16:47.647Z,96.30
2022-11-04T21:19:16.134Z,96.20
2022-11-04T21:21:44.995Z,96.20
2022-11-04T21:24:14.448Z,96.30
2022-11-04T21:26:44.832Z,96.30
2022-11-04T21:29:16.816Z,96.40
2022-11-04T21:31:45.044Z,96.40
2022-11-04T21:34:13.074Z,96.50
2022-11-04T21:36:41.270Z,96.50
2022-11-04T21:39:11.187Z,96.60
2022-11-04T21:41:39.658Z,96.70
2022-11-04T21:44:09.656Z,96.70
2022-11-04T21:46:37.731Z,96.90
2022-11-04T21:49:08.846Z,96.70
2022-11-04T21:51:36.496Z,96.80
2022-11-04T21:54:06.944Z,96.90
2022-11-04T21:56:35.047Z,96.90
2022-11-04T21:59:04.129Z,96.90
2022-11-04T22:01:32.750Z,97.00
2022-11-04T22:04:02.289Z,96.90
2022-11-04T22:06:34.842Z,97.00
2022-11-04T22:09:05.638Z,96.90
2022-11-04T22:11:37.148Z,97.00
2022-11-04T22:14:08.444Z,97.10
2022-11-04T22:16:38.466Z,97.10
2022-11-04T22:19:08.150Z,97.20
2022-11-04T22:21:39.069Z,97.20
2022-11-04T22:24:06.724Z,97.20
2022-11-04T22:26:34.662Z,97.20
2022-11-04T22:29:02.048Z,97.20
2022-11-04T22:31:31.737Z,97.30
2022-11-04T22:34:00.684Z,97.30
2022-11-04T22:36:30.523Z,97.40
2022-11-04T22:38:58.614Z,97.40
2022-11-04T22:41:35.572Z,97.40
2022-11-04T22:44:03.511Z,97.30
2022-11-04T22:46:33.030Z,97.40
2022-11-04T22:49:00.570Z,97.40
2022-11-04T22:51:29.843Z,97.40
2022-11-04T22:54:02.838Z,97.60
2022-11-04T22:56:32.125Z,97.50
2022-11-04T22:59:01.277Z,97.60
2022-11-04T23:01:31.369Z,97.60
2022-11-04T23:04:01.883Z,97.70
2022-11-04T23:06:29.608Z,97.70
2022-11-04T23:09:00.304Z,97.70
2022-11-04T23:11:48.459Z,97.80
2022-11-04T23:14:37.732Z,97.80
2022-11-04T23:17:38.915Z,97.80
2022-11-04T23:20:11.875Z,97.80
2022-11-04T23:22:58.088Z,97.70
2022-11-04T23:25:26.381Z,97.70
2022-11-04T23:28:14.417Z,97.80
2022-11-04T23:30:44.612Z,97.70
2022-11-04T23:33:14.643Z,97.80
2022-11-04T23:36:10.256Z,97.70
2022-11-04T23:38:37.615Z,97.80
2022-11-04T23:41:25.659Z,97.70
2022-11-04T23:43:53.240Z,97.80
2022-11-04T23:46:43.141Z,97.70
2022-11-04T23:49:14.509Z,97.80
2022-11-04T23:52:01.013Z,97.70
2022-11-04T23:54:51.319Z,98.00
2022-11-04T23:57:37.789Z,97.70
